sensor_id;sensor_type;location;lat;lon;timestamp;temperature;humidity
42715;DHT22;28351;51.480;5.706;2023-03-04T00:02:03;5.70;99.90
42715;DHT22;28351;51.480;5.706;2023-03-04T00:04:29;5.70;99.90
42715;DHT22;28351;51.480;5.706;2023-03-04T00:06:55;5.70;99.90
42715;DHT22;28351;51.480;5.706;2023-03-04T00:09:21;5.70;99.90
42715;DHT22;28351;51.480;5.706;2023-03-04T00:11:47;5.70;99.90
42715;DHT22;28351;51.480;5.706;2023-03-04T00:14:12;5.70;99.90
42715;DHT22;28351;51.480;5.706;2023-03-04T00:16:38;5.60;99.90
42715;DHT22;28351;51.480;5.706;2023-03-04T00:19:04;5.70;99.90
42715;DHT22;28351;51.480;5.706;2023-03-04T00:21:30;5.70;99.90
42715;DHT22;28351;51.480;5.706;2023-03-04T00:23:55;5.60;99.90
42715;DHT22;28351;51.480;5.706;2023-03-04T00:26:21;5.60;99.90
42715;DHT22;28351;51.480;5.706;2023-03-04T00:28:47;5.60;99.90
42715;DHT22;28351;51.480;5.706;2023-03-04T00:31:13;5.60;99.90
42715;DHT22;28351;51.480;5.706;2023-03-04T00:33:38;5.60;99.90
42715;DHT22;28351;51.480;5.706;2023-03-04T00:36:05;5.60;99.90
42715;DHT22;28351;51.480;5.706;2023-03-04T00:38:30;5.60;99.90
42715;DHT22;28351;51.480;5.706;2023-03-04T00:40:56;5.60;99.90
42715;DHT22;28351;51.480;5.706;2023-03-04T00:43:22;5.60;99.90
42715;DHT22;28351;51.480;5.706;2023-03-04T00:45:47;5.60;99.90
42715;DHT22;28351;51.480;5.706;2023-03-04T00:48:13;5.70;99.90
42715;DHT22;28351;51.480;5.706;2023-03-04T00:50:41;5.60;99.90
42715;DHT22;28351;51.480;5.706;2023-03-04T00:53:06;5.60;99.90
42715;DHT22;28351;51.480;5.706;2023-03-04T00:55:32;5.60;99.90
42715;DHT22;28351;51.480;5.706;2023-03-04T00:57:57;5.60;99.90
42715;DHT22;28351;51.480;5.706;2023-03-04T01:00:23;5.60;99.90
42715;DHT22;28351;51.480;5.706;2023-03-04T01:02:49;5.60;99.90
42715;DHT22;28351;51.480;5.706;2023-03-04T01:05:14;5.60;99.90
42715;DHT22;28351;51.480;5.706;2023-03-04T01:07:43;5.60;99.90
42715;DHT22;28351;51.480;5.706;2023-03-04T01:10:10;5.70;99.90
42715;DHT22;28351;51.480;5.706;2023-03-04T01:12:36;5.60;99.90
42715;DHT22;28351;51.480;5.706;2023-03-04T01:15:02;5.60;99.90
42715;DHT22;28351;51.480;5.706;2023-03-04T01:17:28;5.60;99.90
42715;DHT22;28351;51.480;5.706;2023-03-04T01:19:54;5.60;99.90
42715;DHT22;28351;51.480;5.706;2023-03-04T01:22:19;5.50;99.90
42715;DHT22;28351;51.480;5.706;2023-03-04T01:24:46;5.60;99.90
42715;DHT22;28351;51.480;5.706;2023-03-04T01:27:12;5.60;99.90
42715;DHT22;28351;51.480;5.706;2023-03-04T01:29:37;5.60;99.90
42715;DHT22;28351;51.480;5.706;2023-03-04T01:32:03;5.60;99.90
42715;DHT22;28351;51.480;5.706;2023-03-04T01:34:29;5.60;99.90
42715;DHT22;28351;51.480;5.706;2023-03-04T01:36:55;5.60;99.90
42715;DHT22;28351;51.480;5.706;2023-03-04T01:39:20;5.50;99.90
42715;DHT22;28351;51.480;5.706;2023-03-04T01:41:46;5.50;99.90
42715;DHT22;28351;51.480;5.706;2023-03-04T01:44:12;5.60;99.90
42715;DHT22;28351;51.480;5.706;2023-03-04T01:46:40;5.60;99.90
42715;DHT22;28351;51.480;5.706;2023-03-04T01:49:09;5.60;99.90
42715;DHT22;28351;51.480;5.706;2023-03-04T01:51:36;5.60;99.90
42715;DHT22;28351;51.480;5.706;2023-03-04T01:54:02;5.50;99.90
42715;DHT22;28351;51.480;5.706;2023-03-04T01:56:38;5.50;99.90
42715;DHT22;28351;51.480;5.706;2023-03-04T01:59:14;5.50;99.90
42715;DHT22;28351;51.480;5.706;2023-03-04T02:01:43;5.50;99.90
42715;DHT22;28351;51.480;5.706;2023-03-04T02:04:09;5.50;99.90
42715;DHT22;28351;51.480;5.706;2023-03-04T02:06:37;5.60;99.90
42715;DHT22;28351;51.480;5.706;2023-03-04T02:09:03;5.60;99.90
42715;DHT22;28351;51.480;5.706;2023-03-04T02:11:29;5.60;99.90
42715;DHT22;28351;51.480;5.706;2023-03-04T02:13:55;5.60;99.90
42715;DHT22;28351;51.480;5.706;2023-03-04T02:22:20;5.60;99.90
42715;DHT22;28351;51.480;5.706;2023-03-04T02:24:53;5.60;99.90
42715;DHT22;28351;51.480;5.706;2023-03-04T02:27:19;5.60;99.90
42715;DHT22;28351;51.480;5.706;2023-03-04T02:29:44;5.60;99.90
42715;DHT22;28351;51.480;5.706;2023-03-04T02:32:12;5.60;99.90
42715;DHT22;28351;51.480;5.706;2023-03-04T02:34:44;5.60;99.90
42715;DHT22;28351;51.480;5.706;2023-03-04T02:37:10;5.60;99.90
42715;DHT22;28351;51.480;5.706;2023-03-04T02:39:46;5.60;99.90
42715;DHT22;28351;51.480;5.706;2023-03-04T02:42:12;5.60;99.90
42715;DHT22;28351;51.480;5.706;2023-03-04T02:44:41;5.60;99.90
42715;DHT22;28351;51.480;5.706;2023-03-04T02:47:09;5.50;99.90
42715;DHT22;28351;51.480;5.706;2023-03-04T02:49:37;5.50;99.90
42715;DHT22;28351;51.480;5.706;2023-03-04T02:52:09;5.50;99.90
42715;DHT22;28351;51.480;5.706;2023-03-04T02:54:37;5.60;99.90
42715;DHT22;28351;51.480;5.706;2023-03-04T02:57:06;5.60;99.90
42715;DHT22;28351;51.480;5.706;2023-03-04T02:59:31;5.60;99.90
42715;DHT22;28351;51.480;5.706;2023-03-04T03:01:57;5.60;99.90
42715;DHT22;28351;51.480;5.706;2023-03-04T03:04:23;5.60;99.90
42715;DHT22;28351;51.480;5.706;2023-03-04T03:06:50;5.50;99.90
42715;DHT22;28351;51.480;5.706;2023-03-04T03:09:16;5.50;99.90
42715;DHT22;28351;51.480;5.706;2023-03-04T03:11:42;5.50;99.90
42715;DHT22;28351;51.480;5.706;2023-03-04T03:14:08;5.50;99.90
42715;DHT22;28351;51.480;5.706;2023-03-04T03:16:34;5.50;99.90
42715;DHT22;28351;51.480;5.706;2023-03-04T03:18:59;5.50;99.90
42715;DHT22;28351;51.480;5.706;2023-03-04T03:21:25;5.50;99.90
42715;DHT22;28351;51.480;5.706;2023-03-04T03:23:51;5.50;99.90
42715;DHT22;28351;51.480;5.706;2023-03-04T03:26:17;5.50;99.90
42715;DHT22;28351;51.480;5.706;2023-03-04T03:28:43;5.50;99.90
42715;DHT22;28351;51.480;5.706;2023-03-04T03:31:09;5.50;99.90
42715;DHT22;28351;51.480;5.706;2023-03-04T03:33:34;5.50;99.90
42715;DHT22;28351;51.480;5.706;2023-03-04T03:36:00;5.60;99.90
42715;DHT22;28351;51.480;5.706;2023-03-04T03:38:26;5.50;99.90
42715;DHT22;28351;51.480;5.706;2023-03-04T03:40:52;5.50;99.90
42715;DHT22;28351;51.480;5.706;2023-03-04T03:43:18;5.50;99.90
42715;DHT22;28351;51.480;5.706;2023-03-04T03:45:44;5.50;99.90
42715;DHT22;28351;51.480;5.706;2023-03-04T03:48:09;5.50;99.90
42715;DHT22;28351;51.480;5.706;2023-03-04T03:50:35;5.50;99.90
42715;DHT22;28351;51.480;5.706;2023-03-04T03:53:01;5.50;99.90
42715;DHT22;28351;51.480;5.706;2023-03-04T03:55:26;5.50;99.90
42715;DHT22;28351;51.480;5.706;2023-03-04T03:57:52;5.50;99.90
42715;DHT22;28351;51.480;5.706;2023-03-04T04:00:18;5.50;99.90
42715;DHT22;28351;51.480;5.706;2023-03-04T04:02:44;5.50;99.90
42715;DHT22;28351;51.480;5.706;2023-03-04T04:05:10;5.50;99.90
42715;DHT22;28351;51.480;5.706;2023-03-04T04:07:36;5.40;99.90
42715;DHT22;28351;51.480;5.706;2023-03-04T04:10:04;5.50;99.90
42715;DHT22;28351;51.480;5.706;2023-03-04T04:12:29;5.50;99.90
42715;DHT22;28351;51.480;5.706;2023-03-04T04:14:55;5.50;99.90
42715;DHT22;28351;51.480;5.706;2023-03-04T04:17:21;5.50;99.90
42715;DHT22;28351;51.480;5.706;2023-03-04T04:19:46;5.50;99.90
42715;DHT22;28351;51.480;5.706;2023-03-04T04:22:14;5.50;99.90
42715;DHT22;28351;51.480;5.706;2023-03-04T04:24:40;5.50;99.90
42715;DHT22;28351;51.480;5.706;2023-03-04T04:27:06;5.50;99.90
42715;DHT22;28351;51.480;5.706;2023-03-04T04:29:32;5.50;99.90
42715;DHT22;28351;51.480;5.706;2023-03-04T04:31:57;5.40;99.90
42715;DHT22;28351;51.480;5.706;2023-03-04T04:34:24;5.50;99.90
42715;DHT22;28351;51.480;5.706;2023-03-04T04:36:50;5.40;99.90
42715;DHT22;28351;51.480;5.706;2023-03-04T04:39:15;5.40;99.90
42715;DHT22;28351;51.480;5.706;2023-03-04T04:41:43;5.40;99.90
42715;DHT22;28351;51.480;5.706;2023-03-04T04:44:09;5.40;99.90
42715;DHT22;28351;51.480;5.706;2023-03-04T04:46:36;5.40;99.90
42715;DHT22;28351;51.480;5.706;2023-03-04T04:49:02;5.40;99.90
42715;DHT22;28351;51.480;5.706;2023-03-04T04:51:28;5.40;99.90
42715;DHT22;28351;51.480;5.706;2023-03-04T04:53:53;5.50;99.90
42715;DHT22;28351;51.480;5.706;2023-03-04T04:56:23;5.40;99.90
42715;DHT22;28351;51.480;5.706;2023-03-04T04:58:57;5.40;99.90
42715;DHT22;28351;51.480;5.706;2023-03-04T05:01:24;5.40;99.90
42715;DHT22;28351;51.480;5.706;2023-03-04T05:03:53;5.40;99.90
42715;DHT22;28351;51.480;5.706;2023-03-04T05:06:24;5.40;99.90
42715;DHT22;28351;51.480;5.706;2023-03-04T05:08:50;5.40;99.90
42715;DHT22;28351;51.480;5.706;2023-03-04T05:11:17;5.40;99.90
42715;DHT22;28351;51.480;5.706;2023-03-04T05:13:44;5.40;99.90
42715;DHT22;28351;51.480;5.706;2023-03-04T05:16:09;5.40;99.90
42715;DHT22;28351;51.480;5.706;2023-03-04T05:18:35;5.30;99.90
42715;DHT22;28351;51.480;5.706;2023-03-04T05:21:02;5.40;99.90
42715;DHT22;28351;51.480;5.706;2023-03-04T05:23:31;5.40;99.90
42715;DHT22;28351;51.480;5.706;2023-03-04T05:25:57;5.50;99.90
42715;DHT22;28351;51.480;5.706;2023-03-04T05:28:23;5.50;99.90
42715;DHT22;28351;51.480;5.706;2023-03-04T05:30:48;5.40;99.90
42715;DHT22;28351;51.480;5.706;2023-03-04T05:33:15;5.50;99.90
42715;DHT22;28351;51.480;5.706;2023-03-04T05:35:42;5.50;99.90
42715;DHT22;28351;51.480;5.706;2023-03-04T05:38:09;5.50;99.90
42715;DHT22;28351;51.480;5.706;2023-03-04T05:40:36;5.50;99.90
42715;DHT22;28351;51.480;5.706;2023-03-04T05:43:02;5.50;99.90
42715;DHT22;28351;51.480;5.706;2023-03-04T05:45:28;5.50;99.90
42715;DHT22;28351;51.480;5.706;2023-03-04T05:47:54;5.50;99.90
42715;DHT22;28351;51.480;5.706;2023-03-04T05:50:23;5.40;99.90
42715;DHT22;28351;51.480;5.706;2023-03-04T05:52:49;5.40;99.90
42715;DHT22;28351;51.480;5.706;2023-03-04T06:00:18;5.40;99.90
42715;DHT22;28351;51.480;5.706;2023-03-04T06:05:13;5.40;99.90
42715;DHT22;28351;51.480;5.706;2023-03-04T06:07:40;5.40;99.90
42715;DHT22;28351;51.480;5.706;2023-03-04T06:10:08;5.40;99.90
42715;DHT22;28351;51.480;5.706;2023-03-04T06:12:34;5.40;99.90
42715;DHT22;28351;51.480;5.706;2023-03-04T06:15:00;5.40;99.90
42715;DHT22;28351;51.480;5.706;2023-03-04T06:17:27;5.40;99.90
42715;DHT22;28351;51.480;5.706;2023-03-04T06:19:53;5.40;99.90
42715;DHT22;28351;51.480;5.706;2023-03-04T06:22:18;5.40;99.90
42715;DHT22;28351;51.480;5.706;2023-03-04T06:24:44;5.40;99.90
42715;DHT22;28351;51.480;5.706;2023-03-04T06:27:09;5.40;99.90
42715;DHT22;28351;51.480;5.706;2023-03-04T06:29:35;5.40;99.90
42715;DHT22;28351;51.480;5.706;2023-03-04T06:32:00;5.40;99.90
42715;DHT22;28351;51.480;5.706;2023-03-04T06:34:26;5.30;99.90
42715;DHT22;28351;51.480;5.706;2023-03-04T06:36:54;5.30;99.90
42715;DHT22;28351;51.480;5.706;2023-03-04T06:39:20;5.20;99.90
42715;DHT22;28351;51.480;5.706;2023-03-04T06:41:51;5.20;99.90
42715;DHT22;28351;51.480;5.706;2023-03-04T06:44:17;5.20;99.90
42715;DHT22;28351;51.480;5.706;2023-03-04T06:46:42;5.20;99.90
42715;DHT22;28351;51.480;5.706;2023-03-04T06:49:08;5.30;99.90
42715;DHT22;28351;51.480;5.706;2023-03-04T06:51:34;5.30;99.90
42715;DHT22;28351;51.480;5.706;2023-03-04T06:54:00;5.20;99.90
42715;DHT22;28351;51.480;5.706;2023-03-04T06:56:25;5.20;99.90
42715;DHT22;28351;51.480;5.706;2023-03-04T06:58:51;5.20;99.90
42715;DHT22;28351;51.480;5.706;2023-03-04T07:01:27;5.20;99.90
42715;DHT22;28351;51.480;5.706;2023-03-04T07:03:54;5.30;99.90
42715;DHT22;28351;51.480;5.706;2023-03-04T07:06:22;5.20;99.90
42715;DHT22;28351;51.480;5.706;2023-03-04T07:08:48;5.20;99.90
42715;DHT22;28351;51.480;5.706;2023-03-04T07:11:15;5.20;99.90
42715;DHT22;28351;51.480;5.706;2023-03-04T07:13:40;5.30;99.90
42715;DHT22;28351;51.480;5.706;2023-03-04T07:16:08;5.30;99.90
42715;DHT22;28351;51.480;5.706;2023-03-04T07:18:35;5.30;99.90
42715;DHT22;28351;51.480;5.706;2023-03-04T07:21:00;5.40;99.90
42715;DHT22;28351;51.480;5.706;2023-03-04T07:23:26;5.40;99.90
42715;DHT22;28351;51.480;5.706;2023-03-04T07:25:52;5.40;99.90
42715;DHT22;28351;51.480;5.706;2023-03-04T07:28:17;5.50;99.90
42715;DHT22;28351;51.480;5.706;2023-03-04T07:30:43;5.50;99.90
42715;DHT22;28351;51.480;5.706;2023-03-04T07:33:09;5.50;99.90
42715;DHT22;28351;51.480;5.706;2023-03-04T07:35:34;5.50;99.90
42715;DHT22;28351;51.480;5.706;2023-03-04T07:38:00;5.60;99.90
42715;DHT22;28351;51.480;5.706;2023-03-04T07:40:26;5.60;99.90
42715;DHT22;28351;51.480;5.706;2023-03-04T07:42:53;5.60;99.90
42715;DHT22;28351;51.480;5.706;2023-03-04T07:45:19;5.70;99.90
42715;DHT22;28351;51.480;5.706;2023-03-04T07:47:45;5.70;99.90
42715;DHT22;28351;51.480;5.706;2023-03-04T07:50:12;5.70;99.90
42715;DHT22;28351;51.480;5.706;2023-03-04T07:52:39;5.70;99.90
42715;DHT22;28351;51.480;5.706;2023-03-04T07:55:05;5.80;99.90
42715;DHT22;28351;51.480;5.706;2023-03-04T07:57:30;5.80;99.90
42715;DHT22;28351;51.480;5.706;2023-03-04T07:59:56;5.80;99.90
42715;DHT22;28351;51.480;5.706;2023-03-04T08:02:22;5.90;99.90
42715;DHT22;28351;51.480;5.706;2023-03-04T08:04:47;5.90;99.90
42715;DHT22;28351;51.480;5.706;2023-03-04T08:07:13;5.90;99.90
42715;DHT22;28351;51.480;5.706;2023-03-04T08:09:38;5.90;99.90
42715;DHT22;28351;51.480;5.706;2023-03-04T08:12:04;6.00;99.90
42715;DHT22;28351;51.480;5.706;2023-03-04T08:14:30;6.00;99.90
42715;DHT22;28351;51.480;5.706;2023-03-04T08:16:55;6.10;99.90
42715;DHT22;28351;51.480;5.706;2023-03-04T08:19:21;6.10;99.90
42715;DHT22;28351;51.480;5.706;2023-03-04T08:21:47;6.20;99.90
42715;DHT22;28351;51.480;5.706;2023-03-04T08:24:12;6.30;99.90
42715;DHT22;28351;51.480;5.706;2023-03-04T08:26:44;6.50;99.90
42715;DHT22;28351;51.480;5.706;2023-03-04T08:29:13;6.50;99.90
42715;DHT22;28351;51.480;5.706;2023-03-04T08:31:39;6.40;99.90
42715;DHT22;28351;51.480;5.706;2023-03-04T08:34:05;6.30;99.90
42715;DHT22;28351;51.480;5.706;2023-03-04T08:36:32;6.50;99.90
42715;DHT22;28351;51.480;5.706;2023-03-04T08:38:58;6.50;99.90
42715;DHT22;28351;51.480;5.706;2023-03-04T08:41:24;6.60;99.90
42715;DHT22;28351;51.480;5.706;2023-03-04T08:43:51;6.60;99.90
42715;DHT22;28351;51.480;5.706;2023-03-04T08:46:17;6.60;99.90
42715;DHT22;28351;51.480;5.706;2023-03-04T08:48:43;6.60;99.90
42715;DHT22;28351;51.480;5.706;2023-03-04T08:51:11;6.60;99.90
42715;DHT22;28351;51.480;5.706;2023-03-04T08:53:37;6.70;99.90
42715;DHT22;28351;51.480;5.706;2023-03-04T08:56:03;7.00;99.90
42715;DHT22;28351;51.480;5.706;2023-03-04T08:58:29;7.10;99.90
42715;DHT22;28351;51.480;5.706;2023-03-04T09:00:54;7.10;99.90
42715;DHT22;28351;51.480;5.706;2023-03-04T09:03:20;6.90;99.90
42715;DHT22;28351;51.480;5.706;2023-03-04T09:05:46;7.00;99.90
42715;DHT22;28351;51.480;5.706;2023-03-04T09:08:13;7.00;99.90
42715;DHT22;28351;51.480;5.706;2023-03-04T09:10:39;7.10;99.90
42715;DHT22;28351;51.480;5.706;2023-03-04T09:13:05;7.10;99.90
42715;DHT22;28351;51.480;5.706;2023-03-04T09:15:32;7.30;99.90
42715;DHT22;28351;51.480;5.706;2023-03-04T09:18:01;7.40;99.90
42715;DHT22;28351;51.480;5.706;2023-03-04T09:20:28;7.50;99.90
42715;DHT22;28351;51.480;5.706;2023-03-04T09:22:53;7.60;99.90
42715;DHT22;28351;51.480;5.706;2023-03-04T09:25:19;7.70;99.90
42715;DHT22;28351;51.480;5.706;2023-03-04T09:27:44;7.90;99.90
42715;DHT22;28351;51.480;5.706;2023-03-04T09:30:10;7.90;99.90
42715;DHT22;28351;51.480;5.706;2023-03-04T09:32:36;7.90;99.90
42715;DHT22;28351;51.480;5.706;2023-03-04T09:35:02;7.80;99.90
42715;DHT22;28351;51.480;5.706;2023-03-04T09:37:28;8.00;99.90
42715;DHT22;28351;51.480;5.706;2023-03-04T09:39:53;7.90;99.90
42715;DHT22;28351;51.480;5.706;2023-03-04T09:42:37;7.80;99.90
42715;DHT22;28351;51.480;5.706;2023-03-04T09:45:07;7.80;99.90
42715;DHT22;28351;51.480;5.706;2023-03-04T09:47:33;7.80;99.90
42715;DHT22;28351;51.480;5.706;2023-03-04T09:50:03;8.00;99.90
42715;DHT22;28351;51.480;5.706;2023-03-04T09:57:59;8.20;99.90
42715;DHT22;28351;51.480;5.706;2023-03-04T10:00:45;8.30;99.90
42715;DHT22;28351;51.480;5.706;2023-03-04T10:03:17;8.60;99.90
42715;DHT22;28351;51.480;5.706;2023-03-04T10:06:06;8.60;99.90
42715;DHT22;28351;51.480;5.706;2023-03-04T10:08:37;8.50;99.90
42715;DHT22;28351;51.480;5.706;2023-03-04T10:11:34;8.50;99.90
42715;DHT22;28351;51.480;5.706;2023-03-04T10:14:08;8.80;99.90
42715;DHT22;28351;51.480;5.706;2023-03-04T10:16:41;9.10;99.90
42715;DHT22;28351;51.480;5.706;2023-03-04T10:21:50;9.40;99.90
42715;DHT22;28351;51.480;5.706;2023-03-04T10:24:19;9.20;99.90
42715;DHT22;28351;51.480;5.706;2023-03-04T10:26:50;8.80;99.90
42715;DHT22;28351;51.480;5.706;2023-03-04T10:29:22;8.70;99.90
42715;DHT22;28351;51.480;5.706;2023-03-04T10:31:50;8.50;99.90
42715;DHT22;28351;51.480;5.706;2023-03-04T10:34:16;8.50;99.90
42715;DHT22;28351;51.480;5.706;2023-03-04T10:39:28;8.70;99.90
42715;DHT22;28351;51.480;5.706;2023-03-04T10:44:54;8.70;99.90
42715;DHT22;28351;51.480;5.706;2023-03-04T10:47:23;8.80;99.90
42715;DHT22;28351;51.480;5.706;2023-03-04T10:49:54;8.80;99.90
42715;DHT22;28351;51.480;5.706;2023-03-04T10:52:53;8.70;99.90
42715;DHT22;28351;51.480;5.706;2023-03-04T10:55:41;8.60;99.90
42715;DHT22;28351;51.480;5.706;2023-03-04T10:58:13;8.70;99.90
42715;DHT22;28351;51.480;5.706;2023-03-04T11:00:39;8.60;99.90
42715;DHT22;28351;51.480;5.706;2023-03-04T11:06:21;8.30;99.90
42715;DHT22;28351;51.480;5.706;2023-03-04T11:08:59;8.10;99.90
42715;DHT22;28351;51.480;5.706;2023-03-04T11:11:37;7.90;99.90
42715;DHT22;28351;51.480;5.706;2023-03-04T11:14:27;7.90;99.90
42715;DHT22;28351;51.480;5.706;2023-03-04T11:16:59;8.10;99.90
42715;DHT22;28351;51.480;5.706;2023-03-04T11:19:36;8.40;99.90
42715;DHT22;28351;51.480;5.706;2023-03-04T11:22:03;8.80;99.90
42715;DHT22;28351;51.480;5.706;2023-03-04T11:24:32;9.40;99.90
42715;DHT22;28351;51.480;5.706;2023-03-04T11:27:10;10.00;99.90
42715;DHT22;28351;51.480;5.706;2023-03-04T11:29:43;10.10;99.90
42715;DHT22;28351;51.480;5.706;2023-03-04T11:32:35;9.60;99.90
42715;DHT22;28351;51.480;5.706;2023-03-04T11:35:31;9.50;99.90
42715;DHT22;28351;51.480;5.706;2023-03-04T11:38:13;9.10;99.90
42715;DHT22;28351;51.480;5.706;2023-03-04T11:41:15;8.80;99.90
42715;DHT22;28351;51.480;5.706;2023-03-04T11:43:45;8.90;99.90
42715;DHT22;28351;51.480;5.706;2023-03-04T11:54:20;9.80;99.90
42715;DHT22;28351;51.480;5.706;2023-03-04T11:56:51;9.60;99.90
42715;DHT22;28351;51.480;5.706;2023-03-04T12:07:29;10.50;99.90
42715;DHT22;28351;51.480;5.706;2023-03-04T12:10:32;10.50;99.90
42715;DHT22;28351;51.480;5.706;2023-03-04T12:16:40;10.30;99.90
42715;DHT22;28351;51.480;5.706;2023-03-04T12:27:52;9.20;99.90
42715;DHT22;28351;51.480;5.706;2023-03-04T12:33:31;9.10;99.90
42715;DHT22;28351;51.480;5.706;2023-03-04T12:38:45;9.30;99.90
42715;DHT22;28351;51.480;5.706;2023-03-04T12:44:10;9.10;99.90
42715;DHT22;28351;51.480;5.706;2023-03-04T12:52:02;9.00;99.90
42715;DHT22;28351;51.480;5.706;2023-03-04T12:54:38;9.00;99.90
42715;DHT22;28351;51.480;5.706;2023-03-04T12:57:19;9.00;99.90
42715;DHT22;28351;51.480;5.706;2023-03-04T13:08:38;9.40;99.90
42715;DHT22;28351;51.480;5.706;2023-03-04T13:16:45;9.20;99.90
42715;DHT22;28351;51.480;5.706;2023-03-04T13:25:28;9.00;99.90
42715;DHT22;28351;51.480;5.706;2023-03-04T13:35:58;8.40;99.90
42715;DHT22;28351;51.480;5.706;2023-03-04T13:43:49;8.40;99.90
42715;DHT22;28351;51.480;5.706;2023-03-04T13:53:47;8.20;99.90
42715;DHT22;28351;51.480;5.706;2023-03-04T13:56:19;8.10;99.90
42715;DHT22;28351;51.480;5.706;2023-03-04T13:58:48;8.00;99.90
42715;DHT22;28351;51.480;5.706;2023-03-04T14:01:24;8.00;99.90
42715;DHT22;28351;51.480;5.706;2023-03-04T14:03:50;7.90;99.90
42715;DHT22;28351;51.480;5.706;2023-03-04T14:06:29;7.90;99.90
42715;DHT22;28351;51.480;5.706;2023-03-04T14:08:56;7.90;99.90
42715;DHT22;28351;51.480;5.706;2023-03-04T14:11:31;8.00;99.90
42715;DHT22;28351;51.480;5.706;2023-03-04T14:14:04;8.20;99.90
42715;DHT22;28351;51.480;5.706;2023-03-04T14:16:36;8.30;99.90
42715;DHT22;28351;51.480;5.706;2023-03-04T14:19:05;8.40;99.90
42715;DHT22;28351;51.480;5.706;2023-03-04T14:21:32;8.40;99.90
42715;DHT22;28351;51.480;5.706;2023-03-04T14:26:30;8.90;99.90
42715;DHT22;28351;51.480;5.706;2023-03-04T14:28:56;9.30;99.90
42715;DHT22;28351;51.480;5.706;2023-03-04T14:31:25;9.70;99.90
42715;DHT22;28351;51.480;5.706;2023-03-04T14:33:55;10.00;99.90
42715;DHT22;28351;51.480;5.706;2023-03-04T14:36:33;9.80;99.90
42715;DHT22;28351;51.480;5.706;2023-03-04T14:39:02;9.70;99.90
42715;DHT22;28351;51.480;5.706;2023-03-04T14:41:34;9.30;99.90
42715;DHT22;28351;51.480;5.706;2023-03-04T14:44:05;8.80;99.90
42715;DHT22;28351;51.480;5.706;2023-03-04T14:46:37;8.60;99.90
42715;DHT22;28351;51.480;5.706;2023-03-04T14:49:05;8.40;99.90
42715;DHT22;28351;51.480;5.706;2023-03-04T14:51:33;8.40;99.90
42715;DHT22;28351;51.480;5.706;2023-03-04T14:54:00;8.40;99.90
42715;DHT22;28351;51.480;5.706;2023-03-04T14:56:28;8.40;99.90
42715;DHT22;28351;51.480;5.706;2023-03-04T14:58:55;8.30;99.90
42715;DHT22;28351;51.480;5.706;2023-03-04T15:01:36;8.20;99.90
42715;DHT22;28351;51.480;5.706;2023-03-04T15:04:10;8.20;99.90
42715;DHT22;28351;51.480;5.706;2023-03-04T15:06:49;8.30;99.90
42715;DHT22;28351;51.480;5.706;2023-03-04T15:09:20;8.30;99.90
42715;DHT22;28351;51.480;5.706;2023-03-04T15:11:49;8.30;99.90
42715;DHT22;28351;51.480;5.706;2023-03-04T15:14:45;8.20;99.90
42715;DHT22;28351;51.480;5.706;2023-03-04T15:17:34;8.20;99.90
42715;DHT22;28351;51.480;5.706;2023-03-04T15:22:34;8.20;99.90
42715;DHT22;28351;51.480;5.706;2023-03-04T15:25:01;8.40;99.90
42715;DHT22;28351;51.480;5.706;2023-03-04T15:27:27;8.50;99.90
42715;DHT22;28351;51.480;5.706;2023-03-04T15:29:55;8.70;99.90
42715;DHT22;28351;51.480;5.706;2023-03-04T15:32:27;8.70;99.90
42715;DHT22;28351;51.480;5.706;2023-03-04T15:34:52;8.80;99.90
42715;DHT22;28351;51.480;5.706;2023-03-04T15:37:26;8.80;99.90
42715;DHT22;28351;51.480;5.706;2023-03-04T15:39:54;8.80;99.90
42715;DHT22;28351;51.480;5.706;2023-03-04T15:42:20;8.70;99.90
42715;DHT22;28351;51.480;5.706;2023-03-04T15:44:46;8.50;99.90
42715;DHT22;28351;51.480;5.706;2023-03-04T15:47:12;8.30;99.90
42715;DHT22;28351;51.480;5.706;2023-03-04T15:49:41;8.10;99.90
42715;DHT22;28351;51.480;5.706;2023-03-04T15:52:14;8.10;99.90
42715;DHT22;28351;51.480;5.706;2023-03-04T15:54:40;8.00;99.90
42715;DHT22;28351;51.480;5.706;2023-03-04T15:57:12;7.90;99.90
42715;DHT22;28351;51.480;5.706;2023-03-04T15:59:41;8.00;99.90
42715;DHT22;28351;51.480;5.706;2023-03-04T16:02:24;7.90;99.90
42715;DHT22;28351;51.480;5.706;2023-03-04T16:04:52;7.90;99.90
42715;DHT22;28351;51.480;5.706;2023-03-04T16:07:27;7.90;99.90
42715;DHT22;28351;51.480;5.706;2023-03-04T16:09:59;7.80;99.90
42715;DHT22;28351;51.480;5.706;2023-03-04T16:12:29;7.70;99.90
42715;DHT22;28351;51.480;5.706;2023-03-04T16:14:56;7.80;99.90
42715;DHT22;28351;51.480;5.706;2023-03-04T16:17:21;7.90;99.90
42715;DHT22;28351;51.480;5.706;2023-03-04T16:19:47;7.80;99.90
42715;DHT22;28351;51.480;5.706;2023-03-04T16:22:14;7.80;99.90
42715;DHT22;28351;51.480;5.706;2023-03-04T16:24:42;7.80;99.90
42715;DHT22;28351;51.480;5.706;2023-03-04T16:27:10;7.80;99.90
42715;DHT22;28351;51.480;5.706;2023-03-04T16:29:37;7.80;99.90
42715;DHT22;28351;51.480;5.706;2023-03-04T16:32:02;7.80;99.90
42715;DHT22;28351;51.480;5.706;2023-03-04T16:34:28;7.70;99.90
42715;DHT22;28351;51.480;5.706;2023-03-04T16:36:54;7.70;99.90
42715;DHT22;28351;51.480;5.706;2023-03-04T16:39:22;7.60;99.90
42715;DHT22;28351;51.480;5.706;2023-03-04T16:41:49;7.60;99.90
42715;DHT22;28351;51.480;5.706;2023-03-04T16:44:15;7.50;99.90
42715;DHT22;28351;51.480;5.706;2023-03-04T16:46:41;7.50;99.90
42715;DHT22;28351;51.480;5.706;2023-03-04T16:49:06;7.40;99.90
42715;DHT22;28351;51.480;5.706;2023-03-04T16:51:40;7.30;99.90
42715;DHT22;28351;51.480;5.706;2023-03-04T16:54:13;7.30;99.90
42715;DHT22;28351;51.480;5.706;2023-03-04T16:56:40;7.30;99.90
42715;DHT22;28351;51.480;5.706;2023-03-04T16:59:05;7.30;99.90
42715;DHT22;28351;51.480;5.706;2023-03-04T17:01:31;7.30;99.90
42715;DHT22;28351;51.480;5.706;2023-03-04T17:04:01;7.20;99.90
42715;DHT22;28351;51.480;5.706;2023-03-04T17:06:27;7.20;99.90
42715;DHT22;28351;51.480;5.706;2023-03-04T17:08:52;7.20;99.90
42715;DHT22;28351;51.480;5.706;2023-03-04T17:11:20;7.20;99.90
42715;DHT22;28351;51.480;5.706;2023-03-04T17:13:46;7.20;99.90
42715;DHT22;28351;51.480;5.706;2023-03-04T17:16:12;7.20;99.90
42715;DHT22;28351;51.480;5.706;2023-03-04T17:18:39;7.10;99.90
42715;DHT22;28351;51.480;5.706;2023-03-04T17:21:09;7.10;99.90
42715;DHT22;28351;51.480;5.706;2023-03-04T17:23:36;7.10;99.90
42715;DHT22;28351;51.480;5.706;2023-03-04T17:26:02;7.10;99.90
42715;DHT22;28351;51.480;5.706;2023-03-04T17:28:28;7.10;99.90
42715;DHT22;28351;51.480;5.706;2023-03-04T17:30:54;7.00;99.90
42715;DHT22;28351;51.480;5.706;2023-03-04T17:33:19;7.10;99.90
42715;DHT22;28351;51.480;5.706;2023-03-04T17:35:45;7.10;99.90
42715;DHT22;28351;51.480;5.706;2023-03-04T17:38:12;7.00;99.90
42715;DHT22;28351;51.480;5.706;2023-03-04T17:40:38;7.00;99.90
42715;DHT22;28351;51.480;5.706;2023-03-04T17:43:04;7.00;99.90
42715;DHT22;28351;51.480;5.706;2023-03-04T17:45:38;7.00;99.90
42715;DHT22;28351;51.480;5.706;2023-03-04T17:48:08;7.00;99.90
42715;DHT22;28351;51.480;5.706;2023-03-04T17:50:51;7.00;99.90
42715;DHT22;28351;51.480;5.706;2023-03-04T17:53:17;6.90;99.90